createdAt,value
2019-04-03T00:02:50.826Z,8.80
2019-04-03T00:06:49.379Z,8.80
2019-04-03T00:10:47.898Z,8.80
2019-04-03T00:14:46.436Z,8.80
2019-04-03T00:18:46.789Z,8.80
2019-04-03T00:22:46.477Z,8.70
2019-04-03T00:26:45.519Z,8.70
2019-04-03T00:30:44.104Z,8.60
2019-04-03T00:34:42.730Z,8.60
2019-04-03T00:38:41.661Z,8.60
2019-04-03T00:42:40.308Z,8.50
2019-04-03T00:46:38.868Z,8.50
2019-04-03T00:50:37.360Z,8.50
2019-04-03T00:54:35.944Z,8.50
2019-04-03T00:58:39.864Z,8.50
2019-04-03T01:02:38.702Z,8.40
2019-04-03T01:06:37.312Z,8.30
2019-04-03T01:10:35.862Z,8.30
2019-04-03T01:14:34.490Z,8.30
2019-04-03T01:18:35.122Z,8.30
2019-04-03T01:22:33.401Z,8.30
2019-04-03T01:26:31.960Z,8.30
2019-04-03T01:30:33.542Z,8.20
2019-04-03T01:34:35.179Z,8.20
2019-04-03T01:38:33.753Z,8.20
2019-04-03T01:42:32.332Z,8.10
2019-04-03T01:46:31.061Z,8.10
2019-04-03T01:50:29.845Z,8.10
2019-04-03T01:54:29.942Z,8.10
2019-04-03T01:58:28.566Z,8.10
2019-04-03T02:02:27.174Z,8.00
2019-04-03T02:06:25.892Z,8.00
2019-04-03T02:10:25.256Z,8.00
2019-04-03T02:14:23.805Z,7.90
2019-04-03T02:18:23.569Z,7.90
2019-04-03T02:22:22.597Z,7.80
2019-04-03T02:26:21.167Z,7.80
2019-04-03T02:30:20.433Z,7.80
2019-04-03T02:34:19.127Z,7.70
2019-04-03T02:38:21.392Z,7.70
2019-04-03T02:42:17.961Z,7.60
2019-04-03T02:46:16.733Z,7.60
2019-04-03T02:50:18.874Z,7.60
2019-04-03T02:54:34.767Z,7.60
2019-04-03T02:58:31.452Z,7.60
2019-04-03T03:02:30.304Z,7.70
2019-04-03T03:06:31.547Z,7.60
2019-04-03T03:10:31.707Z,7.60
2019-04-03T03:14:30.424Z,7.50
2019-04-03T03:18:29.954Z,7.60
2019-04-03T03:22:30.967Z,7.50
2019-04-03T03:26:29.757Z,7.50
2019-04-03T03:30:41.076Z,7.50
2019-04-03T03:34:51.447Z,7.40
2019-04-03T03:38:33.277Z,7.40
2019-04-03T03:42:33.258Z,7.40
2019-04-03T03:46:32.872Z,7.40
2019-04-03T03:50:39.183Z,7.40
2019-04-03T03:54:38.744Z,7.40
2019-04-03T03:58:38.025Z,7.40
2019-04-03T04:02:38.559Z,7.30
2019-04-03T04:06:37.962Z,7.40
2019-04-03T04:10:40.135Z,7.40
2019-04-03T04:18:58.630Z,7.30
2019-04-03T04:22:57.433Z,7.30
2019-04-03T04:26:55.951Z,7.20
2019-04-03T04:30:57.411Z,7.20
2019-04-03T04:34:56.038Z,7.20
2019-04-03T04:38:55.836Z,7.10
2019-04-03T04:42:54.921Z,7.10
2019-04-03T04:46:56.652Z,7.20
2019-04-03T04:50:55.567Z,7.20
2019-04-03T04:54:54.174Z,7.20
2019-04-03T04:58:52.754Z,7.20
2019-04-03T05:02:51.516Z,7.20
2019-04-03T05:06:51.060Z,7.20
2019-04-03T05:10:49.601Z,7.20
2019-04-03T05:14:49.482Z,7.10
2019-04-03T05:18:48.347Z,7.20
2019-04-03T05:22:46.985Z,7.30
2019-04-03T05:26:45.669Z,7.30
2019-04-03T05:30:44.278Z,7.30
2019-04-03T05:34:44.077Z,7.20
2019-04-03T05:38:43.020Z,7.30
2019-04-03T05:42:41.623Z,7.30
2019-04-03T05:46:40.153Z,7.30
2019-04-03T05:50:40.472Z,7.30
2019-04-03T05:54:40.020Z,7.30
2019-04-03T05:58:38.977Z,7.30
2019-04-03T06:02:37.508Z,7.30
2019-04-03T06:06:36.028Z,7.30
2019-04-03T06:10:37.143Z,7.30
2019-04-03T06:14:34.758Z,7.20
2019-04-03T06:18:33.408Z,7.10
2019-04-03T06:22:31.950Z,7.00
2019-04-03T06:26:30.755Z,6.90
2019-04-03T06:30:29.466Z,6.90
2019-04-03T06:34:28.216Z,6.90
2019-04-03T06:38:26.931Z,6.90
2019-04-03T06:42:25.489Z,7.00
2019-04-03T06:46:24.084Z,7.00
2019-04-03T06:50:22.594Z,7.00
2019-04-03T06:54:21.456Z,7.10
2019-04-03T06:58:19.940Z,7.30
2019-04-03T07:02:21.764Z,7.40
2019-04-03T07:06:20.693Z,7.40
2019-04-03T07:10:25.622Z,7.40
2019-04-03T07:14:25.826Z,7.30
2019-04-03T07:18:25.026Z,7.50
2019-04-03T07:22:25.674Z,7.70
2019-04-03T07:26:30.300Z,7.70
2019-04-03T07:30:28.825Z,7.70
2019-04-03T07:34:27.613Z,7.80
2019-04-03T07:38:26.337Z,7.80
2019-04-03T07:42:25.616Z,7.80
2019-04-03T07:46:25.557Z,7.90
2019-04-03T07:50:24.086Z,7.80
2019-04-03T07:54:23.915Z,7.70
2019-04-03T07:58:25.276Z,7.70
2019-04-03T08:02:23.070Z,7.80
2019-04-03T08:06:21.648Z,8.00
2019-04-03T08:10:20.175Z,8.20
2019-04-03T08:14:19.778Z,8.40
2019-04-03T08:18:21.110Z,8.70
2019-04-03T08:22:20.114Z,8.90
2019-04-03T08:26:19.745Z,9.00
2019-04-03T08:30:19.264Z,9.10
2019-04-03T08:34:18.769Z,9.10
2019-04-03T08:38:17.500Z,8.80
2019-04-03T08:42:16.057Z,8.60
2019-04-03T08:46:14.640Z,8.50
2019-04-03T08:50:14.236Z,8.50
2019-04-03T08:54:14.189Z,8.50
2019-04-03T08:58:12.870Z,8.50
2019-04-03T09:02:13.169Z,8.60
2019-04-03T09:06:17.031Z,8.80
2019-04-03T09:10:16.378Z,9.00
2019-04-03T09:14:19.120Z,9.30
2019-04-03T09:18:15.155Z,9.40
2019-04-03T09:22:15.611Z,9.50
2019-04-03T09:26:14.384Z,9.60
2019-04-03T09:30:16.228Z,9.30
2019-04-03T09:34:15.095Z,9.00
2019-04-03T09:38:13.585Z,9.00
2019-04-03T09:42:12.133Z,9.20
2019-04-03T09:46:10.685Z,9.50
2019-04-03T09:50:09.865Z,9.60
2019-04-03T09:54:08.743Z,9.70
2019-04-03T09:58:07.355Z,9.70
2019-04-03T10:02:06.931Z,9.90
2019-04-03T10:06:06.736Z,9.90
2019-04-03T10:10:11.783Z,9.90
2019-04-03T10:14:10.549Z,9.90
2019-04-03T10:18:10.015Z,9.60
2019-04-03T10:22:08.870Z,9.40
2019-04-03T10:26:08.850Z,9.20
2019-04-03T10:30:10.719Z,9.20
2019-04-03T10:34:09.448Z,9.60
2019-04-03T10:38:08.236Z,10.60
2019-04-03T10:42:13.903Z,11.30
2019-04-03T10:46:12.535Z,11.70
2019-04-03T10:50:13.400Z,11.70
2019-04-03T10:54:11.951Z,11.70
2019-04-03T10:58:10.908Z,11.80
2019-04-03T11:02:09.576Z,12.00
2019-04-03T11:06:08.351Z,12.00
2019-04-03T11:10:09.858Z,11.90
2019-04-03T11:14:08.968Z,11.60
2019-04-03T11:18:07.496Z,11.70
2019-04-03T11:22:11.941Z,11.90
2019-04-03T11:26:10.540Z,12.10
2019-04-03T11:30:27.417Z,12.10
2019-04-03T11:34:26.265Z,12.10
2019-04-03T11:38:29.157Z,12.00
2019-04-03T11:42:29.312Z,12.30
2019-04-03T11:46:27.665Z,12.20
2019-04-03T11:50:26.631Z,12.00
2019-04-03T11:54:25.176Z,11.90
2019-04-03T11:58:23.723Z,12.10
2019-04-03T12:02:23.226Z,12.50
2019-04-03T12:06:22.009Z,13.20
2019-04-03T12:10:20.548Z,13.90
2019-04-03T12:14:19.132Z,14.20
2019-04-03T12:18:19.804Z,14.30
2019-04-03T12:22:21.293Z,14.30
2019-04-03T12:26:20.755Z,14.40
2019-04-03T12:30:19.593Z,14.40
2019-04-03T12:34:18.055Z,14.50
2019-04-03T12:38:17.219Z,13.70
2019-04-03T12:42:17.263Z,12.90
2019-04-03T12:46:16.340Z,12.20
2019-04-03T12:50:17.266Z,11.60
2019-04-03T12:54:16.088Z,11.00
2019-04-03T12:58:14.644Z,10.60
2019-04-03T13:02:13.833Z,10.50
2019-04-03T13:06:14.977Z,10.30
2019-04-03T13:10:15.541Z,10.30
2019-04-03T13:14:24.234Z,10.20
2019-04-03T13:18:17.715Z,10.40
2019-04-03T13:22:18.584Z,10.50
2019-04-03T13:26:16.997Z,10.80
2019-04-03T13:30:15.787Z,11.00
2019-04-03T13:34:14.366Z,11.50
2019-04-03T13:38:12.903Z,12.30
2019-04-03T13:42:13.875Z,12.60
2019-04-03T13:46:11.673Z,13.10
2019-04-03T13:50:11.636Z,13.40
2019-04-03T13:54:10.458Z,13.00
2019-04-03T13:58:11.364Z,12.60
2019-04-03T14:02:15.138Z,12.30
2019-04-03T14:06:13.692Z,12.10
2019-04-03T14:10:12.934Z,11.90
2019-04-03T14:14:15.713Z,11.80
2019-04-03T14:18:14.894Z,11.70
2019-04-03T14:22:14.906Z,11.60
2019-04-03T14:26:14.672Z,11.70
2019-04-03T14:30:14.421Z,11.80
2019-04-03T14:34:15.195Z,11.90
2019-04-03T14:38:13.766Z,12.00
2019-04-03T14:42:12.482Z,11.90
2019-04-03T14:46:17.278Z,11.80
2019-04-03T14:50:16.255Z,11.70
2019-04-03T14:54:15.171Z,11.60
2019-04-03T15:02:31.379Z,11.40
2019-04-03T15:06:30.053Z,11.30
2019-04-03T15:10:30.688Z,11.30
2019-04-03T15:14:29.592Z,11.40
2019-04-03T15:18:28.454Z,11.40
2019-04-03T15:22:28.010Z,11.40
2019-04-03T15:26:30.431Z,11.30
2019-04-03T15:30:29.670Z,11.20
2019-04-03T15:34:29.234Z,11.10
2019-04-03T15:38:28.047Z,11.00
2019-04-03T15:42:28.509Z,10.70
2019-04-03T15:46:28.448Z,10.50
2019-04-03T15:50:32.527Z,10.40
2019-04-03T15:54:33.890Z,10.40
2019-04-03T15:58:32.993Z,10.40
2019-04-03T16:02:31.601Z,10.40
2019-04-03T16:06:30.481Z,10.40
2019-04-03T16:10:29.711Z,10.30
2019-04-03T16:14:29.057Z,10.30
2019-04-03T16:18:31.291Z,10.20
2019-04-03T16:22:38.152Z,10.20
2019-04-03T16:26:40.192Z,10.10
2019-04-03T16:30:39.794Z,10.00
2019-04-03T16:34:40.879Z,9.80
2019-04-03T16:38:38.625Z,9.70
2019-04-03T16:42:37.139Z,9.60
2019-04-03T16:46:35.777Z,9.50
2019-04-03T16:50:34.735Z,9.40
2019-04-03T16:54:34.242Z,9.30
2019-04-03T16:58:33.484Z,9.20
2019-04-03T17:02:32.668Z,9.10
2019-04-03T17:06:31.463Z,9.00
2019-04-03T17:10:29.968Z,8.90
2019-04-03T17:14:30.845Z,8.80
2019-04-03T17:18:29.613Z,8.70
2019-04-03T17:22:28.478Z,8.60
2019-04-03T17:26:27.176Z,8.50
2019-04-03T17:30:26.181Z,8.40
2019-04-03T17:34:26.618Z,8.20
2019-04-03T17:38:25.420Z,8.00
2019-04-03T17:42:25.797Z,7.90
2019-04-03T17:46:24.228Z,7.80
2019-04-03T17:50:23.077Z,7.70
2019-04-03T17:54:21.701Z,7.70
2019-04-03T17:58:20.278Z,7.60
2019-04-03T18:02:18.798Z,7.50
2019-04-03T18:06:18.632Z,7.50
2019-04-03T18:10:18.788Z,7.50
2019-04-03T18:14:17.416Z,7.50
2019-04-03T18:18:16.041Z,7.50
2019-04-03T18:22:14.605Z,7.50
2019-04-03T18:26:13.307Z,7.60
2019-04-03T18:30:12.733Z,7.60
2019-04-03T18:34:11.563Z,7.50
2019-04-03T18:38:10.135Z,7.50
2019-04-03T18:42:08.759Z,7.40
2019-04-03T18:46:07.252Z,7.40
2019-04-03T18:50:09.794Z,7.40
2019-04-03T18:54:07.010Z,7.30
2019-04-03T18:58:06.024Z,7.30
2019-04-03T19:02:05.519Z,7.30
2019-04-03T19:06:04.145Z,7.30
2019-04-03T19:10:07.442Z,7.30
2019-04-03T19:14:02.962Z,7.20
2019-04-03T19:18:06.001Z,7.20
2019-04-03T19:22:01.760Z,7.20
2019-04-03T19:26:03.390Z,7.10
2019-04-03T19:30:02.034Z,7.20
2019-04-03T19:34:03.784Z,7.20
2019-04-03T19:38:04.580Z,7.20
2019-04-03T19:42:02.577Z,7.10
2019-04-03T19:46:03.774Z,7.10
2019-04-03T19:50:02.314Z,7.00
2019-04-03T19:54:00.878Z,7.00
2019-04-03T19:57:59.436Z,6.90
2019-04-03T20:01:59.633Z,6.90
2019-04-03T20:05:58.226Z,6.90
2019-04-03T20:09:56.826Z,6.90
2019-04-03T20:13:55.376Z,6.90
2019-04-03T20:17:54.877Z,6.90
2019-04-03T20:21:54.493Z,6.90
2019-04-03T20:25:53.079Z,6.90
2019-04-03T20:29:54.311Z,6.90
2019-04-03T20:34:02.355Z,6.80
2019-04-03T20:38:00.905Z,6.80
2019-04-03T20:41:59.483Z,6.80
2019-04-03T20:46:07.031Z,6.80
2019-04-03T20:50:07.686Z,6.80
2019-04-03T20:54:06.498Z,6.70
2019-04-03T20:58:06.540Z,6.70
2019-04-03T21:02:08.093Z,6.60
2019-04-03T21:06:06.026Z,6.60
2019-04-03T21:10:07.489Z,6.60
2019-04-03T21:14:06.056Z,6.50
2019-04-03T21:18:08.697Z,6.50
2019-04-03T21:22:07.235Z,6.40
2019-04-03T21:26:07.343Z,6.30
2019-04-03T21:30:09.208Z,6.30
2019-04-03T21:34:07.937Z,6.30
2019-04-03T21:38:06.878Z,6.30
2019-04-03T21:42:08.641Z,6.30
2019-04-03T21:46:08.966Z,6.30
2019-04-03T21:50:08.495Z,6.20
2019-04-03T21:54:07.068Z,6.20
2019-04-03T21:58:06.921Z,6.30
2019-04-03T22:02:06.106Z,6.20
2019-04-03T22:06:04.682Z,6.20
2019-04-03T22:10:04.480Z,6.20
2019-04-03T22:14:06.052Z,6.10
2019-04-03T22:18:04.736Z,6.10
2019-04-03T22:22:03.627Z,6.10
2019-04-03T22:26:02.340Z,6.10
2019-04-03T22:30:00.929Z,6.10
2019-04-03T22:33:59.500Z,6.10
2019-04-03T22:37:58.062Z,6.10
2019-04-03T22:41:56.615Z,6.10
2019-04-03T22:45:55.256Z,6.10
2019-04-03T22:49:53.832Z,6.10
2019-04-03T22:53:54.729Z,6.10
2019-04-03T22:57:54.066Z,6.00
2019-04-03T23:01:52.628Z,6.00
2019-04-03T23:05:51.220Z,6.00
2019-04-03T23:09:50.688Z,6.00
2019-04-03T23:13:49.271Z,6.00
2019-04-03T23:17:47.840Z,6.00
2019-04-03T23:21:46.392Z,6.00
2019-04-03T23:25:44.971Z,5.90
2019-04-03T23:29:43.541Z,5.90
2019-04-03T23:33:42.118Z,5.90
2019-04-03T23:37:42.357Z,5.90
2019-04-03T23:41:40.912Z,5.90
2019-04-03T23:45:39.491Z,5.90
2019-04-03T23:49:41.321Z,5.80
2019-04-03T23:53:40.080Z,5.70
2019-04-03T23:57:40.373Z,5.60
